sensor_id;sensor_type;location;lat;lon;timestamp;temperature;humidity
54680;DHT22;40578;53.178;5.846;2023-03-12T00:00:19;-1.00;99.90
54680;DHT22;40578;53.178;5.846;2023-03-12T00:02:44;-1.00;99.90
54680;DHT22;40578;53.178;5.846;2023-03-12T00:05:10;-1.10;99.90
54680;DHT22;40578;53.178;5.846;2023-03-12T00:07:36;-1.10;99.90
54680;DHT22;40578;53.178;5.846;2023-03-12T00:10:03;-0.90;99.90
54680;DHT22;40578;53.178;5.846;2023-03-12T00:12:29;-0.90;99.90
54680;DHT22;40578;53.178;5.846;2023-03-12T00:14:54;-1.00;99.90
54680;DHT22;40578;53.178;5.846;2023-03-12T00:17:20;-1.00;99.90
54680;DHT22;40578;53.178;5.846;2023-03-12T00:19:49;-0.30;99.90
54680;DHT22;40578;53.178;5.846;2023-03-12T00:22:15;-1.00;99.90
54680;DHT22;40578;53.178;5.846;2023-03-12T00:24:41;-1.10;99.90
54680;DHT22;40578;53.178;5.846;2023-03-12T00:27:06;-1.00;99.90
54680;DHT22;40578;53.178;5.846;2023-03-12T00:29:32;-1.10;99.90
54680;DHT22;40578;53.178;5.846;2023-03-12T00:31:58;-1.10;99.90
54680;DHT22;40578;53.178;5.846;2023-03-12T00:34:23;-1.10;99.90
54680;DHT22;40578;53.178;5.846;2023-03-12T00:36:49;-1.10;99.90
54680;DHT22;40578;53.178;5.846;2023-03-12T00:39:15;-1.10;99.90
54680;DHT22;40578;53.178;5.846;2023-03-12T00:41:40;-1.10;99.90
54680;DHT22;40578;53.178;5.846;2023-03-12T00:44:07;-1.10;99.90
54680;DHT22;40578;53.178;5.846;2023-03-12T00:46:32;-1.00;99.90
54680;DHT22;40578;53.178;5.846;2023-03-12T00:48:58;-1.00;99.90
54680;DHT22;40578;53.178;5.846;2023-03-12T00:51:24;1.50;99.90
54680;DHT22;40578;53.178;5.846;2023-03-12T00:53:49;-1.00;99.90
54680;DHT22;40578;53.178;5.846;2023-03-12T00:56:15;-1.10;99.90
54680;DHT22;40578;53.178;5.846;2023-03-12T00:58:41;-1.10;99.90
54680;DHT22;40578;53.178;5.846;2023-03-12T01:01:07;-1.10;99.90
54680;DHT22;40578;53.178;5.846;2023-03-12T01:03:33;-1.20;99.90
54680;DHT22;40578;53.178;5.846;2023-03-12T01:05:59;-1.10;99.90
54680;DHT22;40578;53.178;5.846;2023-03-12T01:08:24;-1.10;99.90
54680;DHT22;40578;53.178;5.846;2023-03-12T01:10:50;-1.20;99.90
54680;DHT22;40578;53.178;5.846;2023-03-12T01:13:16;0.10;99.90
54680;DHT22;40578;53.178;5.846;2023-03-12T01:15:42;-1.20;99.90
54680;DHT22;40578;53.178;5.846;2023-03-12T01:18:07;-1.30;99.90
54680;DHT22;40578;53.178;5.846;2023-03-12T01:20:34;-1.10;99.90
54680;DHT22;40578;53.178;5.846;2023-03-12T01:23:00;-1.20;99.90
54680;DHT22;40578;53.178;5.846;2023-03-12T01:25:26;-1.10;99.90
54680;DHT22;40578;53.178;5.846;2023-03-12T01:27:51;-1.20;99.90
54680;DHT22;40578;53.178;5.846;2023-03-12T01:30:17;-1.10;99.90
54680;DHT22;40578;53.178;5.846;2023-03-12T01:32:43;-1.10;99.90
54680;DHT22;40578;53.178;5.846;2023-03-12T01:35:09;-1.10;99.90
54680;DHT22;40578;53.178;5.846;2023-03-12T01:37:34;-1.00;99.90
54680;DHT22;40578;53.178;5.846;2023-03-12T01:40:00;-1.10;99.90
54680;DHT22;40578;53.178;5.846;2023-03-12T01:42:26;-1.00;99.90
54680;DHT22;40578;53.178;5.846;2023-03-12T01:47:17;-1.10;99.90
54680;DHT22;40578;53.178;5.846;2023-03-12T01:49:44;-0.40;99.90
54680;DHT22;40578;53.178;5.846;2023-03-12T01:52:16;-1.10;99.90
54680;DHT22;40578;53.178;5.846;2023-03-12T01:54:57;-1.00;99.90
54680;DHT22;40578;53.178;5.846;2023-03-12T01:57:36;-0.90;99.90
54680;DHT22;40578;53.178;5.846;2023-03-12T02:00:10;-0.80;99.90
54680;DHT22;40578;53.178;5.846;2023-03-12T02:02:38;-0.90;99.90
54680;DHT22;40578;53.178;5.846;2023-03-12T02:05:35;-0.90;99.90
54680;DHT22;40578;53.178;5.846;2023-03-12T02:08:05;-0.90;99.90
54680;DHT22;40578;53.178;5.846;2023-03-12T02:10:31;-0.80;99.90
54680;DHT22;40578;53.178;5.846;2023-03-12T02:12:56;-0.80;99.90
54680;DHT22;40578;53.178;5.846;2023-03-12T02:15:22;-0.90;99.90
54680;DHT22;40578;53.178;5.846;2023-03-12T02:17:48;-0.90;99.90
54680;DHT22;40578;53.178;5.846;2023-03-12T02:20:47;-0.70;99.90
54680;DHT22;40578;53.178;5.846;2023-03-12T02:26:20;-0.70;99.90
54680;DHT22;40578;53.178;5.846;2023-03-12T02:28:48;-0.80;99.90
54680;DHT22;40578;53.178;5.846;2023-03-12T02:31:21;-0.80;99.90
54680;DHT22;40578;53.178;5.846;2023-03-12T02:33:49;-0.60;99.90
54680;DHT22;40578;53.178;5.846;2023-03-12T02:36:16;-0.70;99.90
54680;DHT22;40578;53.178;5.846;2023-03-12T02:38:47;-0.60;99.90
54680;DHT22;40578;53.178;5.846;2023-03-12T02:41:31;-0.70;99.90
54680;DHT22;40578;53.178;5.846;2023-03-12T02:46:24;-0.60;99.90
54680;DHT22;40578;53.178;5.846;2023-03-12T02:48:50;-0.50;99.90
54680;DHT22;40578;53.178;5.846;2023-03-12T02:51:16;-0.50;99.90
54680;DHT22;40578;53.178;5.846;2023-03-12T02:53:42;-0.50;99.90
54680;DHT22;40578;53.178;5.846;2023-03-12T02:56:08;-0.50;99.90
54680;DHT22;40578;53.178;5.846;2023-03-12T02:58:34;-0.50;99.90
54680;DHT22;40578;53.178;5.846;2023-03-12T03:01:00;-0.50;99.90
54680;DHT22;40578;53.178;5.846;2023-03-12T03:03:26;-0.40;99.90
54680;DHT22;40578;53.178;5.846;2023-03-12T03:05:52;-0.40;99.90
54680;DHT22;40578;53.178;5.846;2023-03-12T03:08:18;-0.40;99.90
54680;DHT22;40578;53.178;5.846;2023-03-12T03:10:44;-0.30;99.90
54680;DHT22;40578;53.178;5.846;2023-03-12T03:13:10;-0.30;99.90
54680;DHT22;40578;53.178;5.846;2023-03-12T03:15:35;-0.30;99.90
54680;DHT22;40578;53.178;5.846;2023-03-12T03:18:03;-0.30;99.90
54680;DHT22;40578;53.178;5.846;2023-03-12T03:20:30;-0.30;99.90
54680;DHT22;40578;53.178;5.846;2023-03-12T03:22:56;-0.20;99.90
54680;DHT22;40578;53.178;5.846;2023-03-12T03:25:22;-0.30;99.90
54680;DHT22;40578;53.178;5.846;2023-03-12T03:27:48;-0.20;99.90
54680;DHT22;40578;53.178;5.846;2023-03-12T03:30:16;-0.20;99.90
54680;DHT22;40578;53.178;5.846;2023-03-12T03:32:42;-0.20;99.90
54680;DHT22;40578;53.178;5.846;2023-03-12T03:35:08;-0.20;99.90
54680;DHT22;40578;53.178;5.846;2023-03-12T03:37:34;-0.10;99.90
54680;DHT22;40578;53.178;5.846;2023-03-12T03:39:59;-0.20;99.90
54680;DHT22;40578;53.178;5.846;2023-03-12T03:42:25;-0.10;99.90
54680;DHT22;40578;53.178;5.846;2023-03-12T03:44:51;-0.10;99.90
54680;DHT22;40578;53.178;5.846;2023-03-12T03:47:16;-0.10;99.90
54680;DHT22;40578;53.178;5.846;2023-03-12T03:49:42;-0.10;99.90
54680;DHT22;40578;53.178;5.846;2023-03-12T03:52:08;0.00;99.90
54680;DHT22;40578;53.178;5.846;2023-03-12T03:54:35;-0.10;99.90
54680;DHT22;40578;53.178;5.846;2023-03-12T03:57:01;0.00;99.90
54680;DHT22;40578;53.178;5.846;2023-03-12T03:59:27;0.00;99.90
54680;DHT22;40578;53.178;5.846;2023-03-12T04:01:53;0.00;99.90
54680;DHT22;40578;53.178;5.846;2023-03-12T04:04:18;0.60;99.90
54680;DHT22;40578;53.178;5.846;2023-03-12T04:06:44;0.00;99.90
54680;DHT22;40578;53.178;5.846;2023-03-12T04:09:10;0.00;99.90
54680;DHT22;40578;53.178;5.846;2023-03-12T04:11:35;0.00;99.90
54680;DHT22;40578;53.178;5.846;2023-03-12T04:14:01;0.00;99.90
54680;DHT22;40578;53.178;5.846;2023-03-12T04:16:28;0.00;99.90
54680;DHT22;40578;53.178;5.846;2023-03-12T04:18:53;0.10;99.90
54680;DHT22;40578;53.178;5.846;2023-03-12T04:21:19;0.00;99.90
54680;DHT22;40578;53.178;5.846;2023-03-12T04:23:45;0.00;99.90
54680;DHT22;40578;53.178;5.846;2023-03-12T04:26:10;0.00;99.90
54680;DHT22;40578;53.178;5.846;2023-03-12T04:28:37;0.00;99.90
54680;DHT22;40578;53.178;5.846;2023-03-12T04:31:05;0.00;99.90
54680;DHT22;40578;53.178;5.846;2023-03-12T04:33:36;0.00;99.90
54680;DHT22;40578;53.178;5.846;2023-03-12T04:36:02;0.00;99.90
54680;DHT22;40578;53.178;5.846;2023-03-12T04:38:29;0.00;99.90
54680;DHT22;40578;53.178;5.846;2023-03-12T04:41:02;0.40;99.90
54680;DHT22;40578;53.178;5.846;2023-03-12T04:43:29;0.00;99.90
54680;DHT22;40578;53.178;5.846;2023-03-12T04:45:56;0.10;99.90
54680;DHT22;40578;53.178;5.846;2023-03-12T04:48:23;0.10;99.90
54680;DHT22;40578;53.178;5.846;2023-03-12T04:50:49;0.00;99.90
54680;DHT22;40578;53.178;5.846;2023-03-12T04:53:15;0.00;99.90
54680;DHT22;40578;53.178;5.846;2023-03-12T04:55:41;0.00;99.90
54680;DHT22;40578;53.178;5.846;2023-03-12T04:58:07;0.10;99.90
54680;DHT22;40578;53.178;5.846;2023-03-12T05:00:33;0.00;99.90
54680;DHT22;40578;53.178;5.846;2023-03-12T05:02:58;0.00;99.90
54680;DHT22;40578;53.178;5.846;2023-03-12T05:05:24;0.00;99.90
54680;DHT22;40578;53.178;5.846;2023-03-12T05:07:50;-0.10;99.90
54680;DHT22;40578;53.178;5.846;2023-03-12T05:10:15;0.00;99.90
54680;DHT22;40578;53.178;5.846;2023-03-12T05:12:41;-0.10;99.90
54680;DHT22;40578;53.178;5.846;2023-03-12T05:15:09;-0.10;99.90
54680;DHT22;40578;53.178;5.846;2023-03-12T05:17:35;-0.10;99.90
54680;DHT22;40578;53.178;5.846;2023-03-12T05:20:01;-0.10;99.90
54680;DHT22;40578;53.178;5.846;2023-03-12T05:22:28;-0.10;99.90
54680;DHT22;40578;53.178;5.846;2023-03-12T05:24:54;-0.10;99.90
54680;DHT22;40578;53.178;5.846;2023-03-12T05:27:19;-0.10;99.90
54680;DHT22;40578;53.178;5.846;2023-03-12T05:29:46;-0.10;99.90
54680;DHT22;40578;53.178;5.846;2023-03-12T05:32:12;0.00;99.90
54680;DHT22;40578;53.178;5.846;2023-03-12T05:34:38;0.00;99.90
54680;DHT22;40578;53.178;5.846;2023-03-12T05:37:03;0.00;99.90
54680;DHT22;40578;53.178;5.846;2023-03-12T05:39:29;1.50;99.90
54680;DHT22;40578;53.178;5.846;2023-03-12T05:41:55;0.10;99.90
54680;DHT22;40578;53.178;5.846;2023-03-12T05:44:24;0.10;99.90
54680;DHT22;40578;53.178;5.846;2023-03-12T05:46:51;0.10;99.90
54680;DHT22;40578;53.178;5.846;2023-03-12T05:49:18;0.10;99.90
54680;DHT22;40578;53.178;5.846;2023-03-12T05:51:46;0.10;99.90
54680;DHT22;40578;53.178;5.846;2023-03-12T05:54:12;0.20;99.90
54680;DHT22;40578;53.178;5.846;2023-03-12T05:56:38;0.20;99.90
54680;DHT22;40578;53.178;5.846;2023-03-12T05:59:04;0.20;99.90
54680;DHT22;40578;53.178;5.846;2023-03-12T06:01:30;0.20;99.90
54680;DHT22;40578;53.178;5.846;2023-03-12T06:03:57;0.50;99.90
54680;DHT22;40578;53.178;5.846;2023-03-12T06:06:23;0.30;99.90
54680;DHT22;40578;53.178;5.846;2023-03-12T06:08:50;0.30;99.90
54680;DHT22;40578;53.178;5.846;2023-03-12T06:11:15;0.30;99.90
54680;DHT22;40578;53.178;5.846;2023-03-12T06:13:41;0.20;99.90
54680;DHT22;40578;53.178;5.846;2023-03-12T06:16:11;0.30;99.90
54680;DHT22;40578;53.178;5.846;2023-03-12T06:18:39;0.30;99.90
54680;DHT22;40578;53.178;5.846;2023-03-12T06:21:20;0.30;99.90
54680;DHT22;40578;53.178;5.846;2023-03-12T06:23:46;0.30;99.90
54680;DHT22;40578;53.178;5.846;2023-03-12T06:26:13;1.50;99.90
54680;DHT22;40578;53.178;5.846;2023-03-12T06:28:39;0.30;99.90
54680;DHT22;40578;53.178;5.846;2023-03-12T06:31:05;0.30;99.90
54680;DHT22;40578;53.178;5.846;2023-03-12T06:33:32;0.30;99.90
54680;DHT22;40578;53.178;5.846;2023-03-12T06:36:00;0.30;99.90
54680;DHT22;40578;53.178;5.846;2023-03-12T06:38:26;0.30;99.90
54680;DHT22;40578;53.178;5.846;2023-03-12T06:41:06;0.30;99.90
54680;DHT22;40578;53.178;5.846;2023-03-12T06:43:33;0.20;99.90
54680;DHT22;40578;53.178;5.846;2023-03-12T06:46:00;0.30;99.90
54680;DHT22;40578;53.178;5.846;2023-03-12T06:48:26;0.30;99.90
54680;DHT22;40578;53.178;5.846;2023-03-12T06:50:52;0.50;99.90
54680;DHT22;40578;53.178;5.846;2023-03-12T06:53:19;0.30;99.90
54680;DHT22;40578;53.178;5.846;2023-03-12T06:55:47;0.30;99.90
54680;DHT22;40578;53.178;5.846;2023-03-12T06:58:13;0.30;99.90
54680;DHT22;40578;53.178;5.846;2023-03-12T07:00:39;0.30;99.90
54680;DHT22;40578;53.178;5.846;2023-03-12T07:03:05;0.20;99.90
54680;DHT22;40578;53.178;5.846;2023-03-12T07:05:31;0.30;99.90
54680;DHT22;40578;53.178;5.846;2023-03-12T07:07:57;0.30;99.90
54680;DHT22;40578;53.178;5.846;2023-03-12T07:10:23;0.30;99.90
54680;DHT22;40578;53.178;5.846;2023-03-12T07:12:49;0.30;99.90
54680;DHT22;40578;53.178;5.846;2023-03-12T07:15:15;0.20;99.90
54680;DHT22;40578;53.178;5.846;2023-03-12T07:17:41;0.30;99.90
54680;DHT22;40578;53.178;5.846;2023-03-12T07:20:07;0.20;99.90
54680;DHT22;40578;53.178;5.846;2023-03-12T07:22:35;0.20;99.90
54680;DHT22;40578;53.178;5.846;2023-03-12T07:25:01;0.20;99.90
54680;DHT22;40578;53.178;5.846;2023-03-12T07:27:27;1.00;99.90
54680;DHT22;40578;53.178;5.846;2023-03-12T07:29:53;0.20;99.90
54680;DHT22;40578;53.178;5.846;2023-03-12T07:32:19;0.30;99.90
54680;DHT22;40578;53.178;5.846;2023-03-12T07:34:44;0.20;99.90
54680;DHT22;40578;53.178;5.846;2023-03-12T07:37:10;0.30;99.90
54680;DHT22;40578;53.178;5.846;2023-03-12T07:39:35;0.30;99.90
54680;DHT22;40578;53.178;5.846;2023-03-12T07:42:02;0.30;99.90
54680;DHT22;40578;53.178;5.846;2023-03-12T07:44:27;0.30;99.90
54680;DHT22;40578;53.178;5.846;2023-03-12T07:46:53;0.30;99.90
54680;DHT22;40578;53.178;5.846;2023-03-12T07:49:19;0.40;99.90
54680;DHT22;40578;53.178;5.846;2023-03-12T07:51:45;0.50;99.90
54680;DHT22;40578;53.178;5.846;2023-03-12T07:54:11;0.40;99.90
54680;DHT22;40578;53.178;5.846;2023-03-12T07:56:37;0.70;99.90
54680;DHT22;40578;53.178;5.846;2023-03-12T07:59:02;0.50;99.90
54680;DHT22;40578;53.178;5.846;2023-03-12T08:01:28;0.50;99.90
54680;DHT22;40578;53.178;5.846;2023-03-12T08:04:00;0.50;99.90
54680;DHT22;40578;53.178;5.846;2023-03-12T08:06:28;0.50;99.90
54680;DHT22;40578;53.178;5.846;2023-03-12T08:08:54;0.60;99.90
54680;DHT22;40578;53.178;5.846;2023-03-12T08:11:20;0.50;99.90
54680;DHT22;40578;53.178;5.846;2023-03-12T08:13:46;0.50;99.90
54680;DHT22;40578;53.178;5.846;2023-03-12T08:16:12;0.60;99.90
54680;DHT22;40578;53.178;5.846;2023-03-12T08:18:42;1.00;99.90
54680;DHT22;40578;53.178;5.846;2023-03-12T08:21:08;0.60;99.90
54680;DHT22;40578;53.178;5.846;2023-03-12T08:23:36;0.60;99.90
54680;DHT22;40578;53.178;5.846;2023-03-12T08:26:02;0.60;99.90
54680;DHT22;40578;53.178;5.846;2023-03-12T08:28:28;0.60;99.90
54680;DHT22;40578;53.178;5.846;2023-03-12T08:30:58;0.60;99.90
54680;DHT22;40578;53.178;5.846;2023-03-12T08:33:24;0.70;99.90
54680;DHT22;40578;53.178;5.846;2023-03-12T08:35:49;1.40;99.90
54680;DHT22;40578;53.178;5.846;2023-03-12T08:38:16;0.70;99.90
54680;DHT22;40578;53.178;5.846;2023-03-12T08:40:42;0.80;99.90
54680;DHT22;40578;53.178;5.846;2023-03-12T08:43:09;0.80;99.90
54680;DHT22;40578;53.178;5.846;2023-03-12T08:45:34;0.90;99.90
54680;DHT22;40578;53.178;5.846;2023-03-12T08:48:04;0.80;99.90
54680;DHT22;40578;53.178;5.846;2023-03-12T08:50:30;0.80;99.90
54680;DHT22;40578;53.178;5.846;2023-03-12T08:52:59;0.90;99.90
54680;DHT22;40578;53.178;5.846;2023-03-12T08:55:25;1.00;99.90
54680;DHT22;40578;53.178;5.846;2023-03-12T08:57:53;1.00;99.90
54680;DHT22;40578;53.178;5.846;2023-03-12T09:00:19;0.90;99.90
54680;DHT22;40578;53.178;5.846;2023-03-12T09:02:45;1.00;99.90
54680;DHT22;40578;53.178;5.846;2023-03-12T09:05:11;0.90;99.90
54680;DHT22;40578;53.178;5.846;2023-03-12T09:07:37;2.50;99.90
54680;DHT22;40578;53.178;5.846;2023-03-12T09:10:04;0.90;99.90
54680;DHT22;40578;53.178;5.846;2023-03-12T09:12:30;0.80;99.90
54680;DHT22;40578;53.178;5.846;2023-03-12T09:14:56;1.00;99.90
54680;DHT22;40578;53.178;5.846;2023-03-12T09:17:21;0.90;99.90
54680;DHT22;40578;53.178;5.846;2023-03-12T09:19:47;1.10;99.90
54680;DHT22;40578;53.178;5.846;2023-03-12T09:22:13;1.10;99.90
54680;DHT22;40578;53.178;5.846;2023-03-12T09:24:38;1.00;99.90
54680;DHT22;40578;53.178;5.846;2023-03-12T09:27:04;1.10;99.90
54680;DHT22;40578;53.178;5.846;2023-03-12T09:29:30;1.10;99.90
54680;DHT22;40578;53.178;5.846;2023-03-12T09:31:57;1.10;99.90
54680;DHT22;40578;53.178;5.846;2023-03-12T09:34:22;1.20;99.90
54680;DHT22;40578;53.178;5.846;2023-03-12T09:36:48;1.20;99.90
54680;DHT22;40578;53.178;5.846;2023-03-12T09:39:14;1.20;99.90
54680;DHT22;40578;53.178;5.846;2023-03-12T09:41:40;1.30;99.90
54680;DHT22;40578;53.178;5.846;2023-03-12T09:44:19;1.30;99.90
54680;DHT22;40578;53.178;5.846;2023-03-12T09:47:01;1.40;99.90
54680;DHT22;40578;53.178;5.846;2023-03-12T09:49:33;3.30;99.90
54680;DHT22;40578;53.178;5.846;2023-03-12T09:52:23;1.30;99.90
54680;DHT22;40578;53.178;5.846;2023-03-12T09:55:11;1.50;99.90
54680;DHT22;40578;53.178;5.846;2023-03-12T09:57:42;1.50;99.90
54680;DHT22;40578;53.178;5.846;2023-03-12T10:00:13;1.40;99.90
54680;DHT22;40578;53.178;5.846;2023-03-12T10:02:47;1.50;99.90
54680;DHT22;40578;53.178;5.846;2023-03-12T10:05:40;1.80;99.90
54680;DHT22;40578;53.178;5.846;2023-03-12T10:10:52;1.70;99.90
54680;DHT22;40578;53.178;5.846;2023-03-12T10:21:45;2.10;99.90
54680;DHT22;40578;53.178;5.846;2023-03-12T10:26:58;1.90;99.90
54680;DHT22;40578;53.178;5.846;2023-03-12T10:31:59;2.30;99.90
54680;DHT22;40578;53.178;5.846;2023-03-12T10:34:39;2.10;99.90
54680;DHT22;40578;53.178;5.846;2023-03-12T10:39:39;2.30;99.90
54680;DHT22;40578;53.178;5.846;2023-03-12T10:42:19;2.40;99.90
54680;DHT22;40578;53.178;5.846;2023-03-12T10:44:50;2.20;99.90
54680;DHT22;40578;53.178;5.846;2023-03-12T10:47:51;2.30;99.90
54680;DHT22;40578;53.178;5.846;2023-03-12T10:50:32;2.30;99.90
54680;DHT22;40578;53.178;5.846;2023-03-12T10:54:00;2.60;99.90
54680;DHT22;40578;53.178;5.846;2023-03-12T10:56:13;2.80;99.90
54680;DHT22;40578;53.178;5.846;2023-03-12T10:58:42;2.50;99.90
54680;DHT22;40578;53.178;5.846;2023-03-12T11:01:22;2.60;99.90
54680;DHT22;40578;53.178;5.846;2023-03-12T11:03:49;2.90;99.90
54680;DHT22;40578;53.178;5.846;2023-03-12T11:06:33;3.10;99.90
54680;DHT22;40578;53.178;5.846;2023-03-12T11:11:36;3.20;99.90
54680;DHT22;40578;53.178;5.846;2023-03-12T11:14:23;3.30;99.90
54680;DHT22;40578;53.178;5.846;2023-03-12T11:16:50;3.40;99.90
54680;DHT22;40578;53.178;5.846;2023-03-12T11:19:32;3.70;99.90
54680;DHT22;40578;53.178;5.846;2023-03-12T11:22:06;3.80;99.90
54680;DHT22;40578;53.178;5.846;2023-03-12T11:24:33;4.30;99.90
54680;DHT22;40578;53.178;5.846;2023-03-12T11:27:38;4.40;99.90
54680;DHT22;40578;53.178;5.846;2023-03-12T11:30:06;4.50;99.90
54680;DHT22;40578;53.178;5.846;2023-03-12T11:32:40;4.50;99.90
54680;DHT22;40578;53.178;5.846;2023-03-12T11:35:11;4.80;99.90
54680;DHT22;40578;53.178;5.846;2023-03-12T11:37:43;4.60;99.90
54680;DHT22;40578;53.178;5.846;2023-03-12T11:57:05;5.40;99.90
54680;DHT22;40578;53.178;5.846;2023-03-12T12:05:17;5.90;99.90
54680;DHT22;40578;53.178;5.846;2023-03-12T12:13:23;6.10;99.90
54680;DHT22;40578;53.178;5.846;2023-03-12T12:21:38;6.60;99.90
54680;DHT22;40578;53.178;5.846;2023-03-12T12:27:28;7.20;99.90
54680;DHT22;40578;53.178;5.846;2023-03-12T12:38:36;7.80;99.90
54680;DHT22;40578;53.178;5.846;2023-03-12T12:41:19;7.80;99.90
54680;DHT22;40578;53.178;5.846;2023-03-12T12:43:49;7.80;99.90
54680;DHT22;40578;53.178;5.846;2023-03-12T12:46:29;7.80;99.90
54680;DHT22;40578;53.178;5.846;2023-03-12T12:49:00;8.00;99.90
54680;DHT22;40578;53.178;5.846;2023-03-12T12:51:35;7.90;99.90
54680;DHT22;40578;53.178;5.846;2023-03-12T12:54:25;8.00;99.90
54680;DHT22;40578;53.178;5.846;2023-03-12T12:57:13;8.00;99.90
54680;DHT22;40578;53.178;5.846;2023-03-12T13:02:26;8.20;99.90
54680;DHT22;40578;53.178;5.846;2023-03-12T13:04:57;8.40;99.90
54680;DHT22;40578;53.178;5.846;2023-03-12T13:09:52;8.90;99.90
54680;DHT22;40578;53.178;5.846;2023-03-12T13:14:52;8.30;99.90
54680;DHT22;40578;53.178;5.846;2023-03-12T13:19:48;8.30;99.90
54680;DHT22;40578;53.178;5.846;2023-03-12T13:22:47;8.20;99.90
54680;DHT22;40578;53.178;5.846;2023-03-12T13:33:44;8.20;99.90
54680;DHT22;40578;53.178;5.846;2023-03-12T13:39:16;8.30;99.90
54680;DHT22;40578;53.178;5.846;2023-03-12T13:41:54;9.40;99.90
54680;DHT22;40578;53.178;5.846;2023-03-12T13:49:50;9.30;99.90
54680;DHT22;40578;53.178;5.846;2023-03-12T13:55:34;8.50;99.90
54680;DHT22;40578;53.178;5.846;2023-03-12T13:58:12;8.60;99.90
54680;DHT22;40578;53.178;5.846;2023-03-12T14:00:58;8.80;99.90
54680;DHT22;40578;53.178;5.846;2023-03-12T14:03:38;8.70;99.90
54680;DHT22;40578;53.178;5.846;2023-03-12T14:06:15;8.80;99.90
54680;DHT22;40578;53.178;5.846;2023-03-12T14:14:34;9.00;99.90
54680;DHT22;40578;53.178;5.846;2023-03-12T14:17:22;9.00;99.90
54680;DHT22;40578;53.178;5.846;2023-03-12T14:20:10;9.10;99.90
54680;DHT22;40578;53.178;5.846;2023-03-12T14:22:38;9.00;99.90
54680;DHT22;40578;53.178;5.846;2023-03-12T14:27:50;9.00;99.90
54680;DHT22;40578;53.178;5.846;2023-03-12T14:30:22;9.00;99.90
54680;DHT22;40578;53.178;5.846;2023-03-12T14:32:51;9.00;99.90
54680;DHT22;40578;53.178;5.846;2023-03-12T14:35:27;9.10;99.90
54680;DHT22;40578;53.178;5.846;2023-03-12T14:37:58;9.20;99.90
54680;DHT22;40578;53.178;5.846;2023-03-12T14:40:43;9.20;99.90
54680;DHT22;40578;53.178;5.846;2023-03-12T14:43:33;9.20;99.90
54680;DHT22;40578;53.178;5.846;2023-03-12T14:46:02;9.20;99.90
54680;DHT22;40578;53.178;5.846;2023-03-12T14:48:34;9.20;99.90
54680;DHT22;40578;53.178;5.846;2023-03-12T14:51:03;10.30;99.90
54680;DHT22;40578;53.178;5.846;2023-03-12T14:53:33;9.20;99.90
54680;DHT22;40578;53.178;5.846;2023-03-12T14:58:25;9.90;99.90
54680;DHT22;40578;53.178;5.846;2023-03-12T15:00:56;9.30;99.90
54680;DHT22;40578;53.178;5.846;2023-03-12T15:03:22;9.30;99.90
54680;DHT22;40578;53.178;5.846;2023-03-12T15:05:50;9.30;99.90
54680;DHT22;40578;53.178;5.846;2023-03-12T15:08:16;10.60;99.90
54680;DHT22;40578;53.178;5.846;2023-03-12T15:10:47;9.30;99.90
54680;DHT22;40578;53.178;5.846;2023-03-12T15:13:15;9.30;99.90
54680;DHT22;40578;53.178;5.846;2023-03-12T15:15:46;9.20;99.90
54680;DHT22;40578;53.178;5.846;2023-03-12T15:20:46;9.20;99.90
54680;DHT22;40578;53.178;5.846;2023-03-12T15:23:13;9.60;99.90
54680;DHT22;40578;53.178;5.846;2023-03-12T15:25:39;9.20;99.90
54680;DHT22;40578;53.178;5.846;2023-03-12T15:30:41;9.20;99.90
54680;DHT22;40578;53.178;5.846;2023-03-12T15:38:23;9.00;99.90
54680;DHT22;40578;53.178;5.846;2023-03-12T15:40:51;9.00;99.90
54680;DHT22;40578;53.178;5.846;2023-03-12T15:43:20;9.20;99.90
54680;DHT22;40578;53.178;5.846;2023-03-12T15:45:47;9.00;99.90
54680;DHT22;40578;53.178;5.846;2023-03-12T15:48:14;9.00;99.90
54680;DHT22;40578;53.178;5.846;2023-03-12T15:50:43;9.50;99.90
54680;DHT22;40578;53.178;5.846;2023-03-12T15:55:38;8.80;99.90
54680;DHT22;40578;53.178;5.846;2023-03-12T15:58:34;9.00;99.90
54680;DHT22;40578;53.178;5.846;2023-03-12T16:01:09;8.70;99.90
54680;DHT22;40578;53.178;5.846;2023-03-12T16:03:38;9.30;99.90
54680;DHT22;40578;53.178;5.846;2023-03-12T16:06:07;8.70;99.90
54680;DHT22;40578;53.178;5.846;2023-03-12T16:08:58;9.20;99.90
54680;DHT22;40578;53.178;5.846;2023-03-12T16:11:26;8.70;99.90
54680;DHT22;40578;53.178;5.846;2023-03-12T16:16:46;8.70;99.90
54680;DHT22;40578;53.178;5.846;2023-03-12T16:19:15;8.60;99.90
54680;DHT22;40578;53.178;5.846;2023-03-12T16:21:43;8.50;99.90
54680;DHT22;40578;53.178;5.846;2023-03-12T16:24:09;8.40;99.90
54680;DHT22;40578;53.178;5.846;2023-03-12T16:26:43;8.40;99.90
54680;DHT22;40578;53.178;5.846;2023-03-12T16:29:13;8.30;99.90
54680;DHT22;40578;53.178;5.846;2023-03-12T16:31:40;8.30;99.90
54680;DHT22;40578;53.178;5.846;2023-03-12T16:34:09;9.40;99.90
54680;DHT22;40578;53.178;5.846;2023-03-12T16:36:35;8.30;99.90
54680;DHT22;40578;53.178;5.846;2023-03-12T16:39:00;8.20;99.90
54680;DHT22;40578;53.178;5.846;2023-03-12T16:41:27;8.20;99.90
54680;DHT22;40578;53.178;5.846;2023-03-12T16:43:53;8.20;99.90
54680;DHT22;40578;53.178;5.846;2023-03-12T16:46:20;8.10;99.90
54680;DHT22;40578;53.178;5.846;2023-03-12T16:48:50;8.10;99.90
54680;DHT22;40578;53.178;5.846;2023-03-12T16:51:19;8.10;99.90
54680;DHT22;40578;53.178;5.846;2023-03-12T16:53:44;8.00;99.90
54680;DHT22;40578;53.178;5.846;2023-03-12T16:56:17;8.00;99.90
54680;DHT22;40578;53.178;5.846;2023-03-12T16:58:43;8.00;99.90
54680;DHT22;40578;53.178;5.846;2023-03-12T17:01:14;8.00;99.90
54680;DHT22;40578;53.178;5.846;2023-03-12T17:03:42;7.90;99.90
54680;DHT22;40578;53.178;5.846;2023-03-12T17:06:15;7.90;99.90
54680;DHT22;40578;53.178;5.846;2023-03-12T17:08:41;7.80;99.90
54680;DHT22;40578;53.178;5.846;2023-03-12T17:11:16;7.80;99.90
54680;DHT22;40578;53.178;5.846;2023-03-12T17:13:44;7.80;99.90
54680;DHT22;40578;53.178;5.846;2023-03-12T17:16:11;7.70;99.90
54680;DHT22;40578;53.178;5.846;2023-03-12T17:18:40;8.40;99.90
54680;DHT22;40578;53.178;5.846;2023-03-12T17:21:08;7.60;99.90
54680;DHT22;40578;53.178;5.846;2023-03-12T17:23:34;7.80;99.90
54680;DHT22;40578;53.178;5.846;2023-03-12T17:26:00;7.60;99.90
54680;DHT22;40578;53.178;5.846;2023-03-12T17:28:25;7.60;99.90
54680;DHT22;40578;53.178;5.846;2023-03-12T17:30:51;7.60;99.90
54680;DHT22;40578;53.178;5.846;2023-03-12T17:33:18;7.70;99.90
54680;DHT22;40578;53.178;5.846;2023-03-12T17:35:44;8.70;99.90
54680;DHT22;40578;53.178;5.846;2023-03-12T17:38:10;7.70;99.90
54680;DHT22;40578;53.178;5.846;2023-03-12T17:40:43;7.60;99.90
54680;DHT22;40578;53.178;5.846;2023-03-12T17:43:09;8.30;99.90
54680;DHT22;40578;53.178;5.846;2023-03-12T17:45:34;7.50;99.90
54680;DHT22;40578;53.178;5.846;2023-03-12T17:48:03;7.50;99.90
54680;DHT22;40578;53.178;5.846;2023-03-12T17:50:29;7.50;99.90
54680;DHT22;40578;53.178;5.846;2023-03-12T17:52:55;7.60;99.90
54680;DHT22;40578;53.178;5.846;2023-03-12T17:55:20;7.50;99.90
54680;DHT22;40578;53.178;5.846;2023-03-12T17:57:46;7.50;99.90
54680;DHT22;40578;53.178;5.846;2023-03-12T18:00:12;7.50;99.90
54680;DHT22;40578;53.178;5.846;2023-03-12T18:02:39;7.50;99.90
54680;DHT22;40578;53.178;5.846;2023-03-12T18:05:06;7.40;99.90